createdAt,value
2017-07-31T00:00:38.229Z,21.65
2017-07-31T00:01:50.839Z,21.63
2017-07-31T00:03:02.797Z,21.65
2017-07-31T00:04:15.418Z,21.6
2017-07-31T00:05:27.946Z,21.63
2017-07-31T00:06:40.519Z,21.63
2017-07-31T00:07:53.090Z,21.63
2017-07-31T00:09:05.731Z,21.58
2017-07-31T00:10:18.031Z,21.51
2017-07-31T00:11:30.578Z,21.54
2017-07-31T00:12:43.172Z,21.53
2017-07-31T00:13:55.447Z,21.48
2017-07-31T00:15:07.738Z,21.53
2017-07-31T00:16:19.712Z,21.48
2017-07-31T00:17:31.736Z,21.56
2017-07-31T00:18:44.039Z,21.54
2017-07-31T00:19:56.690Z,21.58
2017-07-31T00:21:08.922Z,21.54
2017-07-31T00:22:21.140Z,21.48
2017-07-31T00:23:33.733Z,21.47
2017-07-31T00:24:46.012Z,21.47
2017-07-31T00:25:58.326Z,21.47
2017-07-31T00:27:10.341Z,21.47
2017-07-31T00:28:22.926Z,21.48
2017-07-31T00:29:34.891Z,21.41
2017-07-31T00:30:46.878Z,21.37
2017-07-31T00:31:59.752Z,21.38
2017-07-31T00:33:11.449Z,21.32
2017-07-31T00:34:23.699Z,21.37
2017-07-31T00:35:36.343Z,21.33
2017-07-31T00:36:48.931Z,21.35
2017-07-31T00:38:01.187Z,21.28
2017-07-31T00:39:13.814Z,21.23
2017-07-31T00:40:26.379Z,21.19
2017-07-31T00:41:38.702Z,21.22
2017-07-31T00:42:51.287Z,21.22
2017-07-31T00:44:03.277Z,21.13
2017-07-31T00:45:15.254Z,21.22
2017-07-31T00:46:27.508Z,21.14
2017-07-31T00:47:39.514Z,21.07
2017-07-31T00:48:52.092Z,21.07
2017-07-31T00:50:04.425Z,21.05
2017-07-31T00:51:16.700Z,21.07
2017-07-31T00:52:29.263Z,21.04
2017-07-31T00:53:41.836Z,21.07
2017-07-31T00:54:53.532Z,21.05
2017-07-31T00:56:06.128Z,21
2017-07-31T00:57:18.413Z,20.9
2017-07-31T00:58:31.009Z,20.93
2017-07-31T00:59:43.330Z,20.93
2017-07-31T01:00:55.612Z,21.01
2017-07-31T01:02:07.930Z,20.93
2017-07-31T01:03:20.224Z,20.96
2017-07-31T01:04:32.869Z,20.96
2017-07-31T01:05:45.443Z,20.93
2017-07-31T01:06:57.762Z,20.93
2017-07-31T01:08:10.362Z,20.98
2017-07-31T01:09:22.937Z,20.9
2017-07-31T01:10:35.520Z,20.78
2017-07-31T01:11:48.150Z,20.92
2017-07-31T01:12:59.860Z,20.86
2017-07-31T01:14:11.816Z,20.93
2017-07-31T01:15:24.415Z,20.86
2017-07-31T01:16:36.991Z,20.78
2017-07-31T01:17:49.624Z,20.89
2017-07-31T01:19:02.232Z,20.83
2017-07-31T01:20:14.556Z,20.82
2017-07-31T01:21:26.539Z,20.78
2017-07-31T01:22:38.821Z,20.88
2017-07-31T01:23:51.367Z,20.77
2017-07-31T01:25:03.324Z,20.8
2017-07-31T01:26:15.597Z,20.85
2017-07-31T01:27:28.174Z,20.86
2017-07-31T01:28:40.701Z,20.86
2017-07-31T01:29:52.970Z,20.8
2017-07-31T01:31:05.534Z,20.77
2017-07-31T01:32:18.344Z,20.77
2017-07-31T01:33:30.889Z,20.78
2017-07-31T01:34:43.205Z,20.75
2017-07-31T01:35:55.493Z,20.78
2017-07-31T01:37:08.093Z,20.8
2017-07-31T01:38:20.724Z,20.78
2017-07-31T01:39:33.358Z,20.8
2017-07-31T01:40:46.081Z,20.8
2017-07-31T01:41:58.702Z,20.78
2017-07-31T01:43:10.398Z,20.77
2017-07-31T01:44:22.989Z,20.75
2017-07-31T01:45:35.617Z,20.75
2017-07-31T01:46:47.890Z,20.68
2017-07-31T01:48:00.516Z,20.74
2017-07-31T01:49:12.838Z,20.68
2017-07-31T01:50:25.444Z,20.67
2017-07-31T01:51:38.043Z,20.67
2017-07-31T01:52:50.681Z,20.58
2017-07-31T01:54:03.339Z,20.59
2017-07-31T01:55:15.951Z,20.66
2017-07-31T01:56:27.923Z,20.71
2017-07-31T01:57:40.235Z,20.63
2017-07-31T01:58:52.437Z,20.6
2017-07-31T02:00:04.693Z,20.63
2017-07-31T02:01:17.383Z,20.6
2017-07-31T02:02:30.024Z,20.48
2017-07-31T02:03:42.294Z,20.55
2017-07-31T02:04:54.609Z,20.58
2017-07-31T02:06:07.163Z,20.49
2017-07-31T02:07:19.662Z,20.49
2017-07-31T02:08:31.909Z,20.4
2017-07-31T02:09:44.754Z,20.42
2017-07-31T02:10:57.347Z,20.36
2017-07-31T02:12:09.544Z,20.34
2017-07-31T02:13:22.146Z,20.33
2017-07-31T02:14:34.434Z,20.42
2017-07-31T02:15:46.702Z,20.36
2017-07-31T02:16:59.280Z,20.4
2017-07-31T02:18:11.539Z,20.33
2017-07-31T02:19:23.810Z,20.37
2017-07-31T02:20:36.431Z,20.4
2017-07-31T02:21:48.658Z,20.39
2017-07-31T02:23:01.206Z,20.37
2017-07-31T02:24:13.537Z,20.34
2017-07-31T02:25:26.151Z,20.36
2017-07-31T02:26:38.749Z,20.21
2017-07-31T02:27:51.307Z,20.22
2017-07-31T02:29:03.602Z,20.21
2017-07-31T02:30:16.211Z,20.26
2017-07-31T02:31:28.844Z,20.27
2017-07-31T02:32:41.366Z,20.24
2017-07-31T02:33:53.954Z,20.12
2017-07-31T02:35:06.576Z,20.17
2017-07-31T02:36:19.183Z,20.15
2017-07-31T02:37:31.781Z,20.12
2017-07-31T02:38:44.002Z,20.18
2017-07-31T02:39:56.603Z,20.14
2017-07-31T02:41:09.197Z,20.17
2017-07-31T02:42:21.789Z,20.15
2017-07-31T02:43:34.422Z,20.15
2017-07-31T02:44:47.048Z,20.14
2017-07-31T02:45:59.330Z,20.12
2017-07-31T02:47:11.642Z,20.11
2017-07-31T02:48:24.543Z,20.14
2017-07-31T02:49:37.092Z,20.12
2017-07-31T02:50:49.070Z,20.14
2017-07-31T02:52:01.401Z,20.17
2017-07-31T02:53:13.728Z,20.11
2017-07-31T02:54:26.260Z,20.14
2017-07-31T02:55:38.844Z,20.1
2017-07-31T02:56:51.141Z,20.08
2017-07-31T02:58:02.822Z,20.04
2017-07-31T02:59:15.111Z,20.03
2017-07-31T03:00:27.430Z,20.12
2017-07-31T03:01:39.651Z,20.1
2017-07-31T03:02:51.644Z,20.1
2017-07-31T03:04:03.977Z,20.03
2017-07-31T03:05:16.585Z,20.1
2017-07-31T03:06:28.882Z,20.07
2017-07-31T03:07:41.454Z,20.08
2017-07-31T03:08:54.119Z,20.02
2017-07-31T03:10:06.115Z,20.04
2017-07-31T03:11:18.716Z,20.03
2017-07-31T03:12:31.293Z,19.99
2017-07-31T03:13:43.890Z,20.02
2017-07-31T03:14:56.755Z,19.97
2017-07-31T03:16:09.050Z,19.94
2017-07-31T03:17:21.625Z,19.85
2017-07-31T03:18:34.304Z,19.89
2017-07-31T03:19:46.963Z,19.9
2017-07-31T03:20:59.589Z,19.96
2017-07-31T03:22:12.093Z,19.92
2017-07-31T03:23:24.708Z,19.9
2017-07-31T03:24:37.382Z,19.9
2017-07-31T03:25:50.015Z,19.92
2017-07-31T03:27:02.271Z,19.82
2017-07-31T03:28:14.909Z,19.79
2017-07-31T03:29:27.158Z,19.84
2017-07-31T03:30:39.737Z,19.87
2017-07-31T03:31:52.275Z,19.77
2017-07-31T03:33:04.874Z,19.79
2017-07-31T03:34:17.392Z,19.77
2017-07-31T03:35:29.683Z,19.78
2017-07-31T03:36:41.973Z,19.75
2017-07-31T03:37:54.551Z,19.71
2017-07-31T03:39:07.179Z,19.7
2017-07-31T03:40:19.768Z,19.77
2017-07-31T03:41:32.416Z,19.67
2017-07-31T03:42:45.001Z,19.63
2017-07-31T03:43:57.580Z,19.72
2017-07-31T03:45:10.228Z,19.75
2017-07-31T03:46:22.826Z,19.64
2017-07-31T03:47:35.124Z,19.75
2017-07-31T03:48:46.796Z,19.74
2017-07-31T03:49:59.377Z,19.71
2017-07-31T03:51:11.974Z,19.71
2017-07-31T03:52:23.932Z,19.67
2017-07-31T03:53:36.227Z,19.59
2017-07-31T03:54:48.570Z,19.63
2017-07-31T03:56:00.807Z,19.64
2017-07-31T03:57:13.392Z,19.62
2017-07-31T03:58:25.983Z,19.6
2017-07-31T03:59:38.563Z,19.63
2017-07-31T04:00:51.128Z,19.67
2017-07-31T04:02:03.126Z,19.66
2017-07-31T04:03:15.741Z,19.64
2017-07-31T04:04:27.675Z,19.67
2017-07-31T04:05:39.936Z,19.59
2017-07-31T04:06:52.507Z,19.64
2017-07-31T04:08:05.101Z,19.64
2017-07-31T04:09:17.674Z,19.62
2017-07-31T04:10:30.270Z,19.59
2017-07-31T04:11:42.254Z,19.59
2017-07-31T04:12:54.514Z,19.59
2017-07-31T04:14:07.093Z,19.59
2017-07-31T04:15:19.710Z,19.67
2017-07-31T04:16:32.323Z,19.59
2017-07-31T04:17:44.903Z,19.66
2017-07-31T04:18:57.530Z,19.57
2017-07-31T04:20:10.412Z,19.74
2017-07-31T04:21:22.697Z,19.66
2017-07-31T04:22:35.256Z,19.66
2017-07-31T04:23:47.899Z,19.66
2017-07-31T04:25:00.495Z,19.64
2017-07-31T04:26:12.466Z,19.74
2017-07-31T04:27:25.023Z,19.64
2017-07-31T04:28:37.361Z,19.64
2017-07-31T04:29:49.965Z,19.75
2017-07-31T04:31:02.283Z,19.74
2017-07-31T04:32:14.803Z,19.72
2017-07-31T04:33:27.088Z,19.66
2017-07-31T04:34:39.367Z,19.81
2017-07-31T04:35:51.948Z,19.67
2017-07-31T04:37:04.469Z,19.62
2017-07-31T04:38:17.128Z,19.77
2017-07-31T04:39:29.785Z,19.77
2017-07-31T04:40:42.092Z,19.77
2017-07-31T04:41:54.322Z,19.77
2017-07-31T04:43:06.856Z,19.77
2017-07-31T04:44:19.413Z,19.85
2017-07-31T04:45:31.998Z,19.82
2017-07-31T04:46:44.268Z,19.79
2017-07-31T04:47:57.117Z,19.89
2017-07-31T04:49:09.495Z,19.93
2017-07-31T04:50:22.110Z,19.93
2017-07-31T04:51:34.661Z,19.97
2017-07-31T04:52:47.213Z,20.03
2017-07-31T04:53:59.795Z,20.08
2017-07-31T04:55:12.418Z,20.08
2017-07-31T04:56:25.053Z,20.11
2017-07-31T04:57:37.681Z,20.1
2017-07-31T04:58:50.270Z,20.11
2017-07-31T05:00:02.541Z,20.26
2017-07-31T05:01:15.212Z,20.18
2017-07-31T05:02:27.808Z,20.22
2017-07-31T05:03:40.420Z,20.24
2017-07-31T05:04:52.964Z,20.26
2017-07-31T05:06:05.303Z,20.37
2017-07-31T05:07:17.579Z,20.34
2017-07-31T05:08:29.894Z,20.3
2017-07-31T05:09:42.544Z,20.33
2017-07-31T05:10:55.198Z,20.39
2017-07-31T05:12:07.511Z,20.42
2017-07-31T05:13:19.780Z,20.42
2017-07-31T05:14:32.354Z,20.46
2017-07-31T05:15:44.645Z,20.46
2017-07-31T05:16:57.241Z,20.48
2017-07-31T05:18:09.854Z,20.49
2017-07-31T05:19:22.360Z,20.46
2017-07-31T05:20:34.928Z,20.48
2017-07-31T05:21:47.500Z,20.49
2017-07-31T05:23:00.072Z,20.48
2017-07-31T05:24:12.385Z,20.53
2017-07-31T05:25:24.340Z,20.46
2017-07-31T05:26:36.990Z,20.56
2017-07-31T05:27:49.301Z,20.55
2017-07-31T05:29:01.894Z,20.49
2017-07-31T05:30:14.525Z,20.49
2017-07-31T05:31:27.367Z,20.49
2017-07-31T05:32:39.648Z,20.52
2017-07-31T05:33:51.910Z,20.53
2017-07-31T05:35:04.505Z,20.56
2017-07-31T05:36:17.144Z,20.63
2017-07-31T05:37:29.423Z,20.66
2017-07-31T05:38:41.671Z,20.68
2017-07-31T05:39:54.014Z,20.66
2017-07-31T05:41:06.260Z,20.68
2017-07-31T05:42:18.831Z,20.8
2017-07-31T05:43:31.100Z,20.8
2017-07-31T05:44:43.691Z,20.78
2017-07-31T05:45:56.019Z,20.89
2017-07-31T05:47:08.325Z,20.92
2017-07-31T05:48:20.946Z,20.9
2017-07-31T05:49:33.530Z,21.04
2017-07-31T05:50:45.828Z,21.05
2017-07-31T05:51:57.802Z,21.04
2017-07-31T05:53:10.388Z,21.15
2017-07-31T05:54:22.641Z,21.29
2017-07-31T05:55:35.211Z,21.2
2017-07-31T05:56:47.143Z,21.22
2017-07-31T05:57:59.138Z,21.29
2017-07-31T05:59:11.465Z,21.38
2017-07-31T06:00:24.104Z,21.33
2017-07-31T06:01:36.758Z,21.45
2017-07-31T06:02:49.054Z,21.48
2017-07-31T06:04:01.344Z,21.58
2017-07-31T06:05:13.938Z,21.56
2017-07-31T06:06:26.577Z,21.63
2017-07-31T06:07:39.219Z,21.68
2017-07-31T06:08:51.542Z,21.66
2017-07-31T06:10:03.179Z,21.72
2017-07-31T06:11:15.168Z,21.74
2017-07-31T06:12:27.135Z,21.81
2017-07-31T06:13:39.758Z,21.94
2017-07-31T06:14:52.371Z,21.92
2017-07-31T06:16:05.024Z,22.06
2017-07-31T06:17:17.325Z,22.03
2017-07-31T06:18:29.914Z,22.14
2017-07-31T06:19:42.747Z,22.18
2017-07-31T06:20:55.328Z,22.25
2017-07-31T06:22:07.688Z,22.18
2017-07-31T06:23:19.960Z,22.28
2017-07-31T06:24:32.217Z,22.36
2017-07-31T06:25:44.465Z,22.4
2017-07-31T06:26:57.013Z,22.44
2017-07-31T06:28:09.333Z,22.56
2017-07-31T06:29:21.951Z,22.61
2017-07-31T06:30:34.571Z,22.61
2017-07-31T06:31:46.905Z,22.8
2017-07-31T06:32:59.184Z,22.78
2017-07-31T06:34:11.787Z,22.91
2017-07-31T06:35:24.375Z,22.91
2017-07-31T06:36:36.381Z,22.98
2017-07-31T06:37:48.713Z,23.18
2017-07-31T06:39:00.938Z,23.39
2017-07-31T06:40:13.592Z,23.73
2017-07-31T06:41:26.069Z,23.99
2017-07-31T06:42:38.689Z,24.28
2017-07-31T06:43:50.972Z,24.62
2017-07-31T06:45:03.509Z,24.94
2017-07-31T06:46:16.150Z,25.33
2017-07-31T06:47:28.146Z,25.7
2017-07-31T06:48:40.756Z,26.06
2017-07-31T06:49:53.006Z,26.46
2017-07-31T06:51:05.281Z,26.81
2017-07-31T06:52:17.553Z,27.2
2017-07-31T06:53:30.153Z,27.5
2017-07-31T06:54:41.519Z,27.78
2017-07-31T06:55:54.114Z,28.04
2017-07-31T06:57:06.734Z,28.38
2017-07-31T06:58:19.353Z,28.65
2017-07-31T06:59:31.675Z,28.9
2017-07-31T07:00:43.933Z,29.27
2017-07-31T07:01:56.262Z,29.53
2017-07-31T07:03:09.057Z,29.74
2017-07-31T07:04:21.351Z,29.86
2017-07-31T07:05:33.703Z,30.03
2017-07-31T07:06:46.278Z,30.16
2017-07-31T07:07:58.891Z,30.36
2017-07-31T07:09:11.505Z,30.52
2017-07-31T07:10:24.122Z,30.77
2017-07-31T07:11:36.140Z,30.91
2017-07-31T07:12:48.783Z,30.91
2017-07-31T07:14:01.363Z,31.11
2017-07-31T07:15:13.997Z,31.22
2017-07-31T07:16:26.636Z,31.35
2017-07-31T07:17:39.207Z,31.39
2017-07-31T07:18:51.886Z,31.66
2017-07-31T07:20:04.167Z,31.77
2017-07-31T07:21:16.432Z,31.85
2017-07-31T07:22:29.043Z,31.93
2017-07-31T07:23:41.640Z,32
2017-07-31T07:24:53.666Z,32.17
2017-07-31T07:26:05.082Z,32.26
2017-07-31T07:27:17.326Z,32.29
2017-07-31T07:28:29.322Z,32.35
2017-07-31T07:29:41.584Z,32.45
2017-07-31T07:30:53.865Z,32.51
2017-07-31T07:32:06.446Z,32.53
2017-07-31T07:33:18.490Z,32.71
2017-07-31T07:34:30.780Z,32.72
2017-07-31T07:35:42.773Z,32.72
2017-07-31T07:36:55.371Z,32.83
2017-07-31T07:38:07.656Z,32.88
2017-07-31T07:39:19.984Z,32.78
2017-07-31T07:40:32.255Z,32.83
2017-07-31T07:41:44.854Z,32.93
2017-07-31T07:42:57.151Z,33.05
2017-07-31T07:44:09.468Z,33
2017-07-31T07:45:21.848Z,33.09
2017-07-31T07:46:34.513Z,33.13
2017-07-31T07:47:46.792Z,33.26
2017-07-31T07:48:58.802Z,33.45
2017-07-31T07:50:10.834Z,33.39
2017-07-31T07:51:23.449Z,33.33
2017-07-31T07:52:36.026Z,33.42
2017-07-31T07:53:48.358Z,33.4
2017-07-31T07:55:00.742Z,33.42
2017-07-31T07:56:13.039Z,33.42
2017-07-31T07:57:25.708Z,33.42
2017-07-31T07:58:38.312Z,33.44
2017-07-31T07:59:50.949Z,33.31
2017-07-31T08:01:03.280Z,33.16
2017-07-31T08:02:15.941Z,33.08
2017-07-31T08:03:28.471Z,32.95
2017-07-31T08:04:40.741Z,33.04
2017-07-31T08:05:52.773Z,32.81
2017-07-31T08:07:05.041Z,32.83
2017-07-31T08:08:17.630Z,32.83
2017-07-31T08:09:29.894Z,32.91
2017-07-31T08:10:42.202Z,32.72
2017-07-31T08:11:54.888Z,32.79
2017-07-31T08:13:07.222Z,32.88
2017-07-31T08:14:19.834Z,32.97
2017-07-31T08:15:32.454Z,32.97
2017-07-31T08:16:45.094Z,33.03
2017-07-31T08:17:57.456Z,33.04
2017-07-31T08:19:10.018Z,33
2017-07-31T08:20:22.631Z,33.15
2017-07-31T08:21:34.945Z,33.16
2017-07-31T08:22:47.217Z,33.26
2017-07-31T08:23:59.838Z,33.26
2017-07-31T08:25:12.490Z,33.31
2017-07-31T08:26:24.800Z,33.22
2017-07-31T08:27:37.483Z,33.1
2017-07-31T08:28:49.798Z,33.03
2017-07-31T08:30:02.121Z,33
2017-07-31T08:31:14.136Z,32.81
2017-07-31T08:32:26.104Z,32.66
2017-07-31T08:33:38.751Z,32.49
2017-07-31T08:34:50.772Z,32.46
2017-07-31T08:36:03.036Z,32.27
2017-07-31T08:37:14.792Z,32.12
2017-07-31T08:38:27.086Z,31.95
2017-07-31T08:39:39.652Z,31.73
2017-07-31T08:40:52.171Z,31.6
2017-07-31T08:42:04.139Z,31.39
2017-07-31T08:43:16.521Z,31.28
2017-07-31T08:44:28.808Z,31.08
2017-07-31T08:45:41.467Z,30.93
2017-07-31T08:46:53.506Z,30.7
2017-07-31T08:48:06.170Z,30.7
2017-07-31T08:49:18.826Z,30.49
2017-07-31T08:50:31.175Z,30.44
2017-07-31T08:51:43.458Z,30.33
2017-07-31T08:52:56.060Z,30.16
2017-07-31T08:54:08.685Z,30.1
2017-07-31T08:55:21.291Z,29.95
2017-07-31T08:56:33.916Z,29.79
2017-07-31T08:57:46.505Z,29.77
2017-07-31T08:58:59.166Z,29.64
2017-07-31T09:00:11.439Z,29.57
2017-07-31T09:01:23.767Z,29.47
2017-07-31T09:02:36.334Z,29.46
2017-07-31T09:03:48.312Z,29.46
2017-07-31T09:05:00.956Z,29.4
2017-07-31T09:06:13.609Z,29.39
2017-07-31T09:07:26.199Z,29.39
2017-07-31T09:08:38.555Z,29.3
2017-07-31T09:09:50.816Z,29.28
2017-07-31T09:11:03.425Z,29.28
2017-07-31T09:12:15.698Z,29.3
2017-07-31T09:13:27.950Z,29.2
2017-07-31T09:14:40.322Z,29.25
2017-07-31T09:15:52.301Z,29.31
2017-07-31T09:17:04.985Z,29.34
2017-07-31T09:18:17.250Z,29.34
2017-07-31T09:19:29.548Z,29.47
2017-07-31T09:20:41.804Z,29.43
2017-07-31T09:21:54.132Z,29.4
2017-07-31T09:23:06.777Z,29.44
2017-07-31T09:24:19.106Z,29.53
2017-07-31T09:25:31.742Z,29.61
2017-07-31T09:26:44.373Z,29.65
2017-07-31T09:27:56.966Z,29.62
2017-07-31T09:29:09.240Z,29.68
2017-07-31T09:30:20.653Z,29.69
2017-07-31T09:31:33.217Z,29.83
2017-07-31T09:32:45.592Z,29.9
2017-07-31T09:33:58.189Z,29.94
2017-07-31T09:35:10.269Z,30.01
2017-07-31T09:36:22.512Z,30.01
2017-07-31T09:37:34.851Z,30.11
2017-07-31T09:38:47.106Z,30.14
2017-07-31T09:39:59.130Z,30.11
2017-07-31T09:41:11.687Z,30.2
2017-07-31T09:42:24.073Z,30.31
2017-07-31T09:43:36.374Z,30.32
2017-07-31T09:44:48.666Z,30.36
2017-07-31T09:46:00.980Z,30.4
2017-07-31T09:47:13.677Z,30.54
2017-07-31T09:48:26.281Z,30.56
2017-07-31T09:49:38.879Z,30.62
2017-07-31T09:50:51.494Z,30.8
2017-07-31T09:52:04.147Z,30.89
2017-07-31T09:53:16.768Z,31.07
2017-07-31T09:54:29.420Z,31.07
2017-07-31T09:55:41.482Z,31.11
2017-07-31T09:56:53.786Z,31.23
2017-07-31T09:58:06.096Z,31.25
2017-07-31T09:59:18.454Z,31.32
2017-07-31T10:00:31.031Z,31.51
2017-07-31T10:01:42.780Z,31.63
2017-07-31T10:02:55.074Z,31.62
2017-07-31T10:04:07.444Z,31.78
2017-07-31T10:05:19.693Z,31.82
2017-07-31T10:06:32.010Z,31.89
2017-07-31T10:07:44.250Z,32
2017-07-31T10:08:56.907Z,32.15
2017-07-31T10:10:09.491Z,32.2
2017-07-31T10:11:21.796Z,32.3
2017-07-31T10:12:34.018Z,32.44
2017-07-31T10:13:46.655Z,32.61
2017-07-31T10:14:58.961Z,32.67
2017-07-31T10:16:11.603Z,32.86
2017-07-31T10:17:23.911Z,32.95
2017-07-31T10:18:36.426Z,33.1
2017-07-31T10:19:48.797Z,33.36
2017-07-31T10:21:01.155Z,33.55
2017-07-31T10:22:13.739Z,33.84
2017-07-31T10:23:26.370Z,33.95
2017-07-31T10:24:38.961Z,34.13
2017-07-31T10:25:51.556Z,34.4
2017-07-31T10:27:04.153Z,34.6
2017-07-31T10:28:16.768Z,34.88
2017-07-31T10:29:28.837Z,35.18
2017-07-31T10:30:41.504Z,35.35
2017-07-31T10:31:53.794Z,35.71
2017-07-31T10:33:06.102Z,35.87
2017-07-31T10:34:18.355Z,36.11
2017-07-31T10:35:31.013Z,36.25
2017-07-31T10:36:43.608Z,36.31
2017-07-31T10:37:56.273Z,36.5
2017-07-31T10:39:08.902Z,36.66
2017-07-31T10:40:21.147Z,36.69
2017-07-31T10:41:33.746Z,36.78
2017-07-31T10:42:46.092Z,36.92
2017-07-31T10:43:58.412Z,37.07
2017-07-31T10:45:10.730Z,37.09
2017-07-31T10:46:23.002Z,37.25
2017-07-31T10:47:35.351Z,37.41
2017-07-31T10:48:47.978Z,37.68
2017-07-31T10:50:00.349Z,37.67
2017-07-31T10:51:12.397Z,37.86
2017-07-31T10:52:24.760Z,38
2017-07-31T10:53:37.415Z,38.1
2017-07-31T10:54:49.750Z,38.34
2017-07-31T10:56:02.347Z,38.28
2017-07-31T10:57:14.722Z,38.25
2017-07-31T10:58:27.029Z,38.27
2017-07-31T10:59:39.606Z,38.27
2017-07-31T11:00:52.269Z,38.14
2017-07-31T11:02:05.141Z,37.98
2017-07-31T11:03:17.770Z,37.78
2017-07-31T11:04:30.049Z,37.36
2017-07-31T11:05:42.634Z,37.14
2017-07-31T11:06:55.248Z,36.69
2017-07-31T11:08:07.503Z,36.38
2017-07-31T11:09:20.112Z,36.18
2017-07-31T11:10:32.723Z,36.09
2017-07-31T11:11:45.347Z,36.09
2017-07-31T11:12:57.971Z,36.16
2017-07-31T11:14:10.275Z,36.31
2017-07-31T11:15:22.853Z,36.45
2017-07-31T11:16:35.137Z,36.67
2017-07-31T11:17:47.744Z,36.85
2017-07-31T11:18:59.428Z,37.09
2017-07-31T11:20:12.073Z,37.21
2017-07-31T11:21:24.700Z,37.56
2017-07-31T11:22:36.706Z,37.79
2017-07-31T11:23:49.292Z,37.98
2017-07-31T11:25:01.588Z,38.27
2017-07-31T11:26:13.934Z,38.41
2017-07-31T11:27:26.616Z,38.42
2017-07-31T11:28:39.225Z,38.66
2017-07-31T11:29:51.862Z,38.84
2017-07-31T11:31:04.474Z,38.98
2017-07-31T11:32:17.138Z,39.11
2017-07-31T11:33:29.818Z,39.17
2017-07-31T11:34:42.492Z,38.98
2017-07-31T11:35:55.108Z,39
2017-07-31T11:37:07.369Z,38.98
2017-07-31T11:38:19.969Z,39.05
2017-07-31T11:39:32.623Z,39
2017-07-31T11:40:44.890Z,39.12
2017-07-31T11:41:57.491Z,38.9
2017-07-31T11:43:10.113Z,38.9
2017-07-31T11:44:22.427Z,39
2017-07-31T11:45:34.762Z,39.14
2017-07-31T11:46:47.079Z,39.1
2017-07-31T11:47:59.398Z,39.22
2017-07-31T11:49:12.027Z,39.26
2017-07-31T11:50:24.382Z,39.32
2017-07-31T11:51:36.694Z,39.32
2017-07-31T11:52:48.683Z,39.37
2017-07-31T11:54:01.323Z,39.39
2017-07-31T11:55:13.293Z,39.41
2017-07-31T11:56:25.543Z,39.38
2017-07-31T11:57:38.103Z,39.27
2017-07-31T11:58:50.666Z,39.14
2017-07-31T12:00:03.253Z,39.05
2017-07-31T12:01:15.281Z,38.85
2017-07-31T12:02:27.647Z,38.84
2017-07-31T12:03:39.663Z,38.73
2017-07-31T12:04:51.962Z,38.5
2017-07-31T12:06:04.543Z,38
2017-07-31T12:07:16.909Z,37.71
2017-07-31T12:08:28.898Z,37.33
2017-07-31T12:09:41.161Z,37.21
2017-07-31T12:10:53.446Z,37.22
2017-07-31T12:12:06.089Z,37.22
2017-07-31T12:13:18.366Z,37.4
2017-07-31T12:14:30.690Z,37.33
2017-07-31T12:15:42.977Z,37.44
2017-07-31T12:16:55.576Z,37.53
2017-07-31T12:18:08.444Z,37.56
2017-07-31T12:19:20.798Z,37.23
2017-07-31T12:20:32.808Z,37.09
2017-07-31T12:21:45.397Z,37.07
2017-07-31T12:22:57.402Z,37.1
2017-07-31T12:24:09.420Z,37.22
2017-07-31T12:25:21.820Z,37.43
2017-07-31T12:26:34.429Z,37.72
2017-07-31T12:27:46.765Z,37.92
2017-07-31T12:28:59.359Z,38.04
2017-07-31T12:30:11.956Z,38.22
2017-07-31T12:31:24.605Z,38.36
2017-07-31T12:32:37.236Z,38.68
2017-07-31T12:33:49.861Z,38.85
2017-07-31T12:35:02.177Z,39.03
2017-07-31T12:36:14.507Z,39.23
2017-07-31T12:37:26.818Z,39.32
2017-07-31T12:38:39.107Z,39.26
2017-07-31T12:39:51.716Z,39.26
2017-07-31T12:41:03.720Z,39.34
2017-07-31T12:42:16.346Z,39.45
2017-07-31T12:43:28.332Z,39.71
2017-07-31T12:44:40.936Z,39.67
2017-07-31T12:45:53.296Z,39.66
2017-07-31T12:47:05.885Z,39.33
2017-07-31T12:48:17.893Z,39.27
2017-07-31T12:49:29.853Z,39.05
2017-07-31T12:50:42.162Z,38.98
2017-07-31T12:51:54.794Z,39
2017-07-31T12:53:06.846Z,39.15
2017-07-31T12:54:19.418Z,39.37
2017-07-31T12:55:32.058Z,39.45
2017-07-31T12:56:44.089Z,39.68
2017-07-31T12:57:56.773Z,39.82
2017-07-31T12:59:09.081Z,40.07
2017-07-31T13:00:21.077Z,40.29
2017-07-31T13:01:33.593Z,40.49
2017-07-31T13:02:46.190Z,40.76
2017-07-31T13:03:58.123Z,40.92
2017-07-31T13:05:09.857Z,40.96
2017-07-31T13:06:22.457Z,41.23
2017-07-31T13:07:35.000Z,41.22
2017-07-31T13:08:47.668Z,41.23
2017-07-31T13:09:59.676Z,41.22
2017-07-31T13:11:11.665Z,41.04
2017-07-31T13:12:23.609Z,41.05
2017-07-31T13:13:35.902Z,40.89
2017-07-31T13:14:48.253Z,40.85
2017-07-31T13:16:00.906Z,40.95
2017-07-31T13:17:13.557Z,40.99
2017-07-31T13:18:25.873Z,41
2017-07-31T13:19:38.207Z,40.99
2017-07-31T13:20:50.852Z,41.05
2017-07-31T13:22:03.549Z,40.92
2017-07-31T13:23:16.119Z,40.88
2017-07-31T13:24:28.384Z,40.83
2017-07-31T13:25:40.955Z,40.8
2017-07-31T13:26:53.601Z,40.66
2017-07-31T13:28:05.595Z,40.81
2017-07-31T13:29:17.893Z,40.8
2017-07-31T13:30:30.494Z,40.89
2017-07-31T13:31:43.113Z,40.98
2017-07-31T13:32:55.418Z,40.83
2017-07-31T13:34:08.034Z,40.83
2017-07-31T13:35:20.035Z,40.89
2017-07-31T13:36:32.628Z,40.93
2017-07-31T13:37:44.957Z,40.98
2017-07-31T13:38:57.594Z,40.67
2017-07-31T13:40:10.174Z,40.73
2017-07-31T13:41:22.468Z,40.81
2017-07-31T13:42:35.130Z,40.61
2017-07-31T13:43:47.773Z,40.67
2017-07-31T13:45:00.408Z,40.4
2017-07-31T13:46:12.437Z,40.49
2017-07-31T13:47:25.058Z,40.48
2017-07-31T13:48:37.639Z,40.44
2017-07-31T13:49:49.966Z,40.43
2017-07-31T13:51:02.643Z,40.44
2017-07-31T13:52:15.323Z,40.42
2017-07-31T13:53:27.579Z,40.46
2017-07-31T13:54:39.898Z,40.46
2017-07-31T13:55:52.179Z,40.24
2017-07-31T13:57:03.864Z,40.2
2017-07-31T13:58:16.563Z,40.17
2017-07-31T13:59:28.876Z,40.2
2017-07-31T14:00:41.496Z,40.16
2017-07-31T14:01:54.097Z,40.01
2017-07-31T14:03:06.714Z,40.02
2017-07-31T14:04:19.309Z,39.94
2017-07-31T14:05:31.671Z,39.79
2017-07-31T14:06:44.309Z,39.73
2017-07-31T14:07:56.921Z,39.56
2017-07-31T14:09:09.493Z,39.2
2017-07-31T14:10:22.134Z,38.82
2017-07-31T14:11:34.160Z,38.53
2017-07-31T14:12:46.430Z,38.5
2017-07-31T14:13:58.977Z,38.41
2017-07-31T14:15:11.273Z,38.42
2017-07-31T14:16:23.532Z,38.23
2017-07-31T14:17:35.764Z,38.27
2017-07-31T14:18:48.036Z,38.14
2017-07-31T14:20:00.354Z,38.05
2017-07-31T14:21:12.692Z,38.12
2017-07-31T14:22:24.987Z,38.07
2017-07-31T14:23:37.622Z,38.1
2017-07-31T14:24:50.210Z,38.29
2017-07-31T14:26:02.844Z,38.35
2017-07-31T14:27:14.508Z,38.34
2017-07-31T14:28:27.099Z,38.36
2017-07-31T14:29:39.737Z,38.34
2017-07-31T14:30:52.324Z,38.41
2017-07-31T14:32:04.998Z,38.44
2017-07-31T14:33:17.333Z,38.38
2017-07-31T14:34:29.910Z,38.35
2017-07-31T14:35:42.503Z,38.47
2017-07-31T14:36:55.102Z,38.28
2017-07-31T14:38:07.165Z,38.27
2017-07-31T14:39:19.473Z,38.31
2017-07-31T14:40:32.101Z,38.44
2017-07-31T14:41:44.742Z,38.39
2017-07-31T14:42:57.394Z,38.35
2017-07-31T14:44:10.000Z,38.29
2017-07-31T14:45:22.655Z,38.2
2017-07-31T14:46:35.270Z,38.05
2017-07-31T14:47:47.837Z,37.67
2017-07-31T14:49:00.480Z,37.36
2017-07-31T14:50:13.130Z,37.11
2017-07-31T14:51:25.720Z,36.75
2017-07-31T14:52:38.334Z,36.45
2017-07-31T14:53:50.594Z,36.22
2017-07-31T14:55:03.192Z,35.98
2017-07-31T14:56:15.833Z,35.84
2017-07-31T14:57:28.457Z,35.63
2017-07-31T14:58:40.715Z,35.5
2017-07-31T14:59:52.400Z,35.26
2017-07-31T15:01:04.696Z,35.04
2017-07-31T15:02:17.277Z,34.85
2017-07-31T15:03:29.581Z,34.73
2017-07-31T15:04:42.184Z,34.6
2017-07-31T15:05:54.209Z,34.51
2017-07-31T15:07:06.518Z,34.35
2017-07-31T15:08:18.568Z,34.31
2017-07-31T15:09:30.603Z,34.18
2017-07-31T15:10:43.223Z,34.13
2017-07-31T15:11:55.488Z,34.06
2017-07-31T15:13:07.529Z,33.89
2017-07-31T15:14:20.080Z,33.67
2017-07-31T15:15:32.743Z,33.58
2017-07-31T15:16:45.410Z,33.42
2017-07-31T15:17:57.425Z,33.33
2017-07-31T15:19:09.752Z,33.13
2017-07-31T15:20:22.389Z,32.97
2017-07-31T15:21:35.098Z,32.88
2017-07-31T15:22:47.969Z,32.85
2017-07-31T15:23:59.979Z,32.67
2017-07-31T15:25:12.602Z,32.68
2017-07-31T15:26:24.278Z,32.48
2017-07-31T15:27:36.801Z,32.38
2017-07-31T15:28:49.443Z,32.34
2017-07-31T15:30:02.091Z,32.27
2017-07-31T15:31:14.398Z,32.19
2017-07-31T15:32:27.025Z,32.08
2017-07-31T15:33:39.580Z,32.07
2017-07-31T15:34:52.126Z,32
2017-07-31T15:36:04.406Z,31.97
2017-07-31T15:37:16.933Z,31.86